createdAt,value
2023-02-14T00:00:53.718Z,65.71
2023-02-14T00:03:21.666Z,65.37
2023-02-14T00:05:49.543Z,65.78
2023-02-14T00:08:17.238Z,65.79
2023-02-14T00:10:45.808Z,65.46
2023-02-14T00:13:13.483Z,65.79
2023-02-14T00:15:41.518Z,65.61
2023-02-14T00:18:09.316Z,65.76
2023-02-14T00:20:37.042Z,65.67
2023-02-14T00:23:04.750Z,65.54
2023-02-14T00:25:34.237Z,65.50
2023-02-14T00:28:01.910Z,65.42
2023-02-14T00:30:30.254Z,65.36
2023-02-14T00:32:58.367Z,65.60
2023-02-14T00:35:26.299Z,65.37
2023-02-14T00:37:55.353Z,65.25
2023-02-14T00:40:24.314Z,65.43
2023-02-14T00:42:52.058Z,65.27
2023-02-14T00:45:20.286Z,65.23
2023-02-14T00:47:47.981Z,65.43
2023-02-14T00:50:16.141Z,65.68
2023-02-14T00:52:45.439Z,65.47
2023-02-14T00:55:13.130Z,65.72
2023-02-14T00:57:40.845Z,65.60
2023-02-14T01:00:11.421Z,65.55
2023-02-14T01:02:39.353Z,65.67
2023-02-14T01:05:09.153Z,65.41
2023-02-14T01:07:37.373Z,65.88
2023-02-14T01:10:06.999Z,65.57
2023-02-14T01:12:34.734Z,65.98
2023-02-14T01:15:02.470Z,66.12
2023-02-14T01:17:30.194Z,66.01
2023-02-14T01:19:57.941Z,65.68
2023-02-14T01:22:25.707Z,65.57
2023-02-14T01:24:54.417Z,65.89
2023-02-14T01:27:22.608Z,65.88
2023-02-14T01:29:50.491Z,65.92
2023-02-14T01:32:19.950Z,66.08
2023-02-14T01:34:47.748Z,65.72
2023-02-14T01:37:15.444Z,65.83
2023-02-14T01:39:43.471Z,65.76
2023-02-14T01:42:14.868Z,65.93
2023-02-14T01:45:00.937Z,65.98
2023-02-14T01:47:33.289Z,65.81
2023-02-14T01:50:02.392Z,65.93
2023-02-14T01:52:34.794Z,65.88
2023-02-14T01:55:06.162Z,65.70
2023-02-14T01:57:40.126Z,65.66
2023-02-14T02:00:29.059Z,65.89
2023-02-14T02:02:59.195Z,66.12
2023-02-14T02:05:28.226Z,65.80
2023-02-14T02:08:00.197Z,65.80
2023-02-14T02:10:28.857Z,65.63
2023-02-14T02:13:01.265Z,65.79
2023-02-14T02:15:33.706Z,65.49
2023-02-14T02:18:11.118Z,65.47
2023-02-14T02:21:06.096Z,65.31
2023-02-14T02:24:03.670Z,65.81
2023-02-14T02:26:48.523Z,65.67
2023-02-14T02:29:40.335Z,65.12
2023-02-14T02:32:32.487Z,65.02
2023-02-14T02:35:27.123Z,65.04
2023-02-14T02:38:07.192Z,64.89
2023-02-14T02:40:48.530Z,65.27
2023-02-14T02:43:35.214Z,64.80
2023-02-14T02:46:28.060Z,64.88
2023-02-14T02:49:03.012Z,64.62
2023-02-14T02:52:07.085Z,64.94
2023-02-14T02:54:39.450Z,64.68
2023-02-14T02:57:09.417Z,64.57
2023-02-14T02:59:41.281Z,64.93
2023-02-14T03:02:14.952Z,64.55
2023-02-14T03:04:52.856Z,64.69
2023-02-14T03:07:34.789Z,64.68
2023-02-14T03:10:08.309Z,64.33
2023-02-14T03:13:13.674Z,64.22
2023-02-14T03:15:52.449Z,64.35
2023-02-14T03:18:54.053Z,64.32
2023-02-14T03:21:30.988Z,64.26
2023-02-14T03:24:09.769Z,64.39
2023-02-14T03:26:46.518Z,64.33
2023-02-14T03:29:22.695Z,64.07
2023-02-14T03:32:00.275Z,63.85
2023-02-14T03:34:33.530Z,63.92
2023-02-14T03:37:08.866Z,64.04
2023-02-14T03:39:45.368Z,64.09
2023-02-14T03:42:19.906Z,64.00
2023-02-14T03:44:48.999Z,63.90
2023-02-14T03:47:21.161Z,63.84
2023-02-14T03:49:53.392Z,64.03
2023-02-14T03:52:23.289Z,63.93
2023-02-14T03:54:53.858Z,63.97
2023-02-14T03:57:26.211Z,63.85
2023-02-14T03:59:54.915Z,64.09
2023-02-14T04:02:29.058Z,64.03
2023-02-14T04:04:58.456Z,64.50
2023-02-14T04:07:26.177Z,64.17
2023-02-14T04:09:53.856Z,64.48
2023-02-14T04:12:32.302Z,64.24
2023-02-14T04:15:04.245Z,64.42
2023-02-14T04:17:50.608Z,64.15
2023-02-14T04:20:18.907Z,63.78
2023-02-14T04:22:46.774Z,64.11
2023-02-14T04:25:14.883Z,64.37
2023-02-14T04:27:42.606Z,64.10
2023-02-14T04:30:12.908Z,63.84
2023-02-14T04:32:41.282Z,63.94
2023-02-14T04:35:09.302Z,64.11
2023-02-14T04:37:37.140Z,63.92
2023-02-14T04:40:08.577Z,63.73
2023-02-14T04:42:36.303Z,63.68
2023-02-14T04:45:04.851Z,63.60
2023-02-14T04:47:32.675Z,63.55
2023-02-14T04:50:03.156Z,63.82
2023-02-14T04:52:30.872Z,63.50
2023-02-14T04:54:58.637Z,63.26
2023-02-14T04:57:26.393Z,62.94
2023-02-14T04:59:54.081Z,63.00
2023-02-14T05:02:21.862Z,62.97
2023-02-14T05:04:49.939Z,62.89
2023-02-14T05:07:17.728Z,63.02
2023-02-14T05:09:45.451Z,63.07
2023-02-14T05:12:13.137Z,63.26
2023-02-14T05:14:40.927Z,63.05
2023-02-14T05:17:08.689Z,63.15
2023-02-14T05:19:36.410Z,62.84
2023-02-14T05:22:04.255Z,62.72
2023-02-14T05:24:32.016Z,62.72
2023-02-14T05:26:59.749Z,63.15
2023-02-14T05:29:27.998Z,63.03
2023-02-14T05:31:55.754Z,62.81
2023-02-14T05:34:23.472Z,62.91
2023-02-14T05:36:51.188Z,62.89
2023-02-14T05:39:19.268Z,63.04
2023-02-14T05:41:46.937Z,63.04
2023-02-14T05:44:14.718Z,62.83
2023-02-14T05:46:42.462Z,63.16
2023-02-14T05:49:10.181Z,63.13
2023-02-14T05:51:37.908Z,63.33
2023-02-14T05:54:06.171Z,63.31
2023-02-14T05:56:33.877Z,63.10
2023-02-14T05:59:01.571Z,63.30
2023-02-14T06:01:29.270Z,63.35
2023-02-14T06:03:56.957Z,63.12
2023-02-14T06:06:24.691Z,63.11
2023-02-14T06:08:52.387Z,63.10
2023-02-14T06:11:20.221Z,63.02
2023-02-14T06:13:48.073Z,63.27
2023-02-14T06:16:15.877Z,63.32
2023-02-14T06:18:43.879Z,63.24
2023-02-14T06:21:11.585Z,63.40
2023-02-14T06:23:39.273Z,63.45
2023-02-14T06:26:07.007Z,63.78
2023-02-14T06:28:34.709Z,63.68
2023-02-14T06:31:03.005Z,63.46
2023-02-14T06:33:31.024Z,63.24
2023-02-14T06:35:58.751Z,63.44
2023-02-14T06:38:26.546Z,63.87
2023-02-14T06:40:54.258Z,63.58
2023-02-14T06:43:21.964Z,63.50
2023-02-14T06:45:49.715Z,63.51
2023-02-14T06:48:17.432Z,63.86
2023-02-14T06:50:47.370Z,63.67
2023-02-14T06:53:15.056Z,63.64
2023-02-14T06:55:43.888Z,63.42
2023-02-14T06:58:12.017Z,63.69
2023-02-14T07:00:40.175Z,63.29
2023-02-14T07:03:08.616Z,63.64
2023-02-14T07:05:36.611Z,63.63
2023-02-14T07:08:06.522Z,63.92
2023-02-14T07:10:35.055Z,63.61
2023-02-14T07:13:03.502Z,63.78
2023-02-14T07:15:31.394Z,63.57
2023-02-14T07:17:59.153Z,63.44
2023-02-14T07:20:28.230Z,63.53
2023-02-14T07:22:56.493Z,63.55
2023-02-14T07:25:24.180Z,63.23
2023-02-14T07:28:03.037Z,63.56
2023-02-14T07:30:32.258Z,63.51
2023-02-14T07:33:00.078Z,63.51
2023-02-14T07:35:27.920Z,63.64
2023-02-14T07:37:55.894Z,63.57
2023-02-14T07:40:24.678Z,63.47
2023-02-14T07:42:56.811Z,63.49
2023-02-14T07:45:25.498Z,63.49
2023-02-14T07:47:54.913Z,63.18
2023-02-14T07:50:24.444Z,63.39
2023-02-14T07:52:52.325Z,63.51
2023-02-14T07:55:20.450Z,63.16
2023-02-14T07:57:48.919Z,63.10
2023-02-14T08:00:17.835Z,63.21
2023-02-14T08:02:45.736Z,63.30
2023-02-14T08:05:15.010Z,63.38
2023-02-14T08:07:43.313Z,63.12
2023-02-14T08:10:13.084Z,63.20
2023-02-14T08:12:59.427Z,63.45
2023-02-14T08:16:03.299Z,63.20
2023-02-14T08:18:32.690Z,63.10
2023-02-14T08:21:00.982Z,62.95
2023-02-14T08:23:29.420Z,62.97
2023-02-14T08:25:57.557Z,62.93
2023-02-14T08:28:25.903Z,62.83
2023-02-14T08:30:54.969Z,62.66
2023-02-14T08:33:22.765Z,62.31
2023-02-14T08:35:52.410Z,62.45
2023-02-14T08:38:20.506Z,62.38
2023-02-14T08:40:48.551Z,62.17
2023-02-14T08:43:16.286Z,62.14
2023-02-14T08:45:44.297Z,61.97
2023-02-14T08:48:13.098Z,62.37
2023-02-14T08:50:41.992Z,62.37
2023-02-14T08:53:11.528Z,62.39
2023-02-14T08:55:39.428Z,62.55
2023-02-14T08:58:08.230Z,62.56
2023-02-14T09:00:36.226Z,62.12
2023-02-14T09:03:04.261Z,62.40
2023-02-14T09:05:32.532Z,62.34
2023-02-14T09:08:01.443Z,62.33
2023-02-14T09:10:29.213Z,62.24
2023-02-14T09:12:56.904Z,62.34
2023-02-14T09:15:24.698Z,62.29
2023-02-14T09:17:52.521Z,62.30
2023-02-14T09:20:20.927Z,62.09
2023-02-14T09:22:49.016Z,61.75
2023-02-14T09:25:17.500Z,62.18
2023-02-14T09:27:45.259Z,61.96
2023-02-14T09:30:15.571Z,61.93
2023-02-14T09:32:43.411Z,61.64
2023-02-14T09:35:11.960Z,61.87
2023-02-14T09:37:39.800Z,61.78
2023-02-14T09:40:12.624Z,61.95
2023-02-14T09:42:55.069Z,61.82
2023-02-14T09:45:26.156Z,61.51
2023-02-14T09:47:59.926Z,61.64
2023-02-14T09:50:33.800Z,61.69
2023-02-14T09:53:07.839Z,61.40
2023-02-14T09:55:42.237Z,61.35
2023-02-14T09:58:17.018Z,61.57
2023-02-14T10:00:52.241Z,61.35
2023-02-14T10:03:47.211Z,61.23
2023-02-14T10:06:39.317Z,61.04
2023-02-14T10:09:19.303Z,61.15
2023-02-14T10:11:48.842Z,61.24
2023-02-14T10:14:19.214Z,61.30
2023-02-14T10:16:54.739Z,61.25
2023-02-14T10:19:26.188Z,61.22
2023-02-14T10:21:59.819Z,61.07
2023-02-14T10:24:31.168Z,60.99
2023-02-14T10:27:11.044Z,61.10
2023-02-14T10:29:39.947Z,60.97
2023-02-14T10:32:14.811Z,60.71
2023-02-14T10:34:47.889Z,60.61
2023-02-14T10:37:44.903Z,60.46
2023-02-14T10:40:40.048Z,60.28
2023-02-14T10:43:18.351Z,60.12
2023-02-14T10:45:56.681Z,60.16
2023-02-14T10:48:32.763Z,60.14
2023-02-14T10:51:13.347Z,60.14
2023-02-14T10:53:49.689Z,60.36
2023-02-14T10:56:24.450Z,60.44
2023-02-14T10:58:56.489Z,60.65
2023-02-14T11:01:25.072Z,60.91
2023-02-14T11:03:55.610Z,61.06
2023-02-14T11:06:23.803Z,60.86
2023-02-14T11:08:51.750Z,60.65
2023-02-14T11:11:28.252Z,60.54
2023-02-14T11:13:56.154Z,60.43
2023-02-14T11:16:32.299Z,60.37
2023-02-14T11:19:19.964Z,60.17
2023-02-14T11:21:50.537Z,60.21
2023-02-14T11:24:25.557Z,59.99
2023-02-14T11:26:56.241Z,59.78
2023-02-14T11:29:29.476Z,59.75
2023-02-14T11:32:06.703Z,59.80
2023-02-14T11:34:39.358Z,59.71
2023-02-14T11:37:25.200Z,59.75
2023-02-14T11:39:54.740Z,59.55
2023-02-14T11:42:37.513Z,59.45
2023-02-14T11:45:08.014Z,59.35
2023-02-14T11:47:40.740Z,59.31
2023-02-14T11:50:24.018Z,59.22
2023-02-14T11:52:55.858Z,59.26
2023-02-14T11:55:26.676Z,59.10
2023-02-14T11:57:55.855Z,59.07
2023-02-14T12:00:26.520Z,58.52
2023-02-14T12:02:55.591Z,58.70
2023-02-14T12:05:28.285Z,58.13
2023-02-14T12:07:58.389Z,58.01
2023-02-14T12:10:28.969Z,58.15
2023-02-14T12:12:59.923Z,58.09
2023-02-14T12:15:34.013Z,58.07
2023-02-14T12:18:26.503Z,57.64
2023-02-14T12:20:59.630Z,57.18
2023-02-14T12:23:36.201Z,57.32
2023-02-14T12:26:13.317Z,57.48
2023-02-14T12:28:47.965Z,57.13
2023-02-14T12:31:16.319Z,57.03
2023-02-14T12:33:46.374Z,57.03
2023-02-14T12:36:26.624Z,57.14
2023-02-14T12:39:04.205Z,57.43
2023-02-14T12:41:44.891Z,57.55
2023-02-14T12:44:23.139Z,57.15
2023-02-14T12:47:18.778Z,56.92
2023-02-14T12:50:02.768Z,56.81
2023-02-14T12:52:49.298Z,56.87
2023-02-14T12:55:34.134Z,56.76
2023-02-14T12:58:05.359Z,57.32
2023-02-14T13:00:45.161Z,57.12
2023-02-14T13:03:46.118Z,57.44
2023-02-14T13:06:21.974Z,57.59
2023-02-14T13:09:10.868Z,57.69
2023-02-14T13:11:50.377Z,57.50
2023-02-14T13:14:37.453Z,57.50
2023-02-14T13:17:14.944Z,57.44
2023-02-14T13:19:50.727Z,57.17
2023-02-14T13:22:21.461Z,57.32
2023-02-14T13:24:53.410Z,57.54
2023-02-14T13:27:24.576Z,57.56
2023-02-14T13:29:57.860Z,57.49
2023-02-14T13:32:30.615Z,57.56
2023-02-14T13:34:59.491Z,57.57
2023-02-14T13:37:30.519Z,57.81
2023-02-14T13:40:01.774Z,57.61
2023-02-14T13:42:54.023Z,57.54
2023-02-14T13:45:57.480Z,57.57
2023-02-14T13:48:28.554Z,57.73
2023-02-14T13:50:58.996Z,57.61
2023-02-14T13:53:37.738Z,57.59
2023-02-14T13:56:06.136Z,57.49
2023-02-14T13:58:35.173Z,57.60
2023-02-14T14:01:31.399Z,57.56
2023-02-14T14:04:02.006Z,57.54
2023-02-14T14:06:30.248Z,57.41
2023-02-14T14:08:58.192Z,57.57
2023-02-14T14:12:01.745Z,57.62
2023-02-14T14:14:39.223Z,57.52
2023-02-14T14:17:22.521Z,57.79
2023-02-14T14:19:50.654Z,57.72
2023-02-14T14:22:19.349Z,57.69
2023-02-14T14:24:59.675Z,57.78
2023-02-14T14:27:32.170Z,57.56
2023-02-14T14:30:02.234Z,57.41
2023-02-14T14:32:32.640Z,57.43
2023-02-14T14:35:02.836Z,57.55
2023-02-14T14:37:33.521Z,57.84
2023-02-14T14:40:03.947Z,57.92
2023-02-14T14:42:36.560Z,57.87
2023-02-14T14:45:09.181Z,58.04
2023-02-14T14:47:42.868Z,57.94
2023-02-14T14:50:18.343Z,58.20
2023-02-14T14:52:48.977Z,58.04
2023-02-14T14:55:21.960Z,58.11
2023-02-14T14:57:53.177Z,58.49
2023-02-14T15:00:27.938Z,58.46
2023-02-14T15:03:02.842Z,58.46
2023-02-14T15:05:34.771Z,58.40
2023-02-14T15:08:19.560Z,58.39
2023-02-14T15:10:48.403Z,58.65
2023-02-14T15:13:34.865Z,58.48
2023-02-14T15:16:04.216Z,58.74
2023-02-14T15:18:33.228Z,58.27
2023-02-14T15:21:04.063Z,58.55
2023-02-14T15:23:32.699Z,58.64
2023-02-14T15:26:00.869Z,58.45
2023-02-14T15:28:31.716Z,58.67
2023-02-14T15:31:02.730Z,58.52
2023-02-14T15:33:32.568Z,58.55
2023-02-14T15:36:04.377Z,58.60
2023-02-14T15:38:35.047Z,58.50
2023-02-14T15:41:03.350Z,58.58
2023-02-14T15:43:33.170Z,58.61
2023-02-14T15:46:16.957Z,58.56
2023-02-14T15:48:46.141Z,58.86
2023-02-14T15:51:21.048Z,58.54
2023-02-14T15:53:53.369Z,58.35
2023-02-14T15:56:21.756Z,58.26
2023-02-14T15:58:50.716Z,58.61
2023-02-14T16:01:21.731Z,58.80
2023-02-14T16:03:52.682Z,58.65
2023-02-14T16:06:33.643Z,58.60
2023-02-14T16:09:02.676Z,58.73
2023-02-14T16:11:35.417Z,58.68
2023-02-14T16:14:27.497Z,58.67
2023-02-14T16:17:01.744Z,58.79
2023-02-14T16:19:35.534Z,58.87
2023-02-14T16:22:03.768Z,58.78
2023-02-14T16:24:31.734Z,58.80
2023-02-14T16:27:06.192Z,58.96
2023-02-14T16:29:35.386Z,58.89
2023-02-14T16:32:16.488Z,58.94
2023-02-14T16:34:46.655Z,59.12
2023-02-14T16:37:21.820Z,59.12
2023-02-14T16:39:51.220Z,59.49
2023-02-14T16:42:19.522Z,59.09
2023-02-14T16:44:48.000Z,59.18
2023-02-14T16:47:18.079Z,59.33
2023-02-14T16:49:46.134Z,59.02
2023-02-14T16:52:17.915Z,58.96
2023-02-14T16:54:46.681Z,59.11
2023-02-14T16:57:21.346Z,58.96
2023-02-14T16:59:50.243Z,58.96
2023-02-14T17:02:18.469Z,59.04
2023-02-14T17:04:46.274Z,58.84
2023-02-14T17:07:15.356Z,59.40
2023-02-14T17:09:48.406Z,59.25
2023-02-14T17:12:20.894Z,59.06
2023-02-14T17:14:53.471Z,59.01
2023-02-14T17:17:21.650Z,59.03
2023-02-14T17:19:51.547Z,59.10
2023-02-14T17:22:20.803Z,59.12
2023-02-14T17:24:48.878Z,59.19
2023-02-14T17:27:16.643Z,59.26
2023-02-14T17:29:44.330Z,59.16
2023-02-14T17:32:13.059Z,59.33
2023-02-14T17:34:41.095Z,59.18
2023-02-14T17:37:09.029Z,59.11
2023-02-14T17:39:36.743Z,59.19
2023-02-14T17:42:05.212Z,59.29
2023-02-14T17:44:35.234Z,59.06
2023-02-14T17:47:03.934Z,59.35
2023-02-14T17:49:31.832Z,59.17
2023-02-14T17:51:59.514Z,59.38
2023-02-14T17:54:27.294Z,59.32
2023-02-14T17:56:54.998Z,59.17
2023-02-14T17:59:23.648Z,59.23
2023-02-14T18:01:51.418Z,59.42
2023-02-14T18:04:19.754Z,59.54
2023-02-14T18:06:47.924Z,59.41
2023-02-14T18:09:15.998Z,59.33
2023-02-14T18:11:43.718Z,59.28
2023-02-14T18:14:11.417Z,59.33
2023-02-14T18:16:40.190Z,59.43
2023-02-14T18:19:09.365Z,59.16
2023-02-14T18:21:39.519Z,59.24
2023-02-14T18:24:09.030Z,59.37
2023-02-14T18:26:38.626Z,59.34
2023-02-14T18:29:07.335Z,59.30
2023-02-14T18:31:37.216Z,59.25
2023-02-14T18:34:05.176Z,59.42
2023-02-14T18:36:34.819Z,59.50
2023-02-14T18:39:02.890Z,59.38
2023-02-14T18:41:31.594Z,59.48
2023-02-14T18:43:59.822Z,59.34
2023-02-14T18:46:29.963Z,59.40
2023-02-14T18:48:57.869Z,59.45
2023-02-14T18:51:28.161Z,59.55
2023-02-14T18:53:57.436Z,59.66
2023-02-14T18:56:28.079Z,59.50
2023-02-14T18:58:58.526Z,59.42
2023-02-14T19:01:30.590Z,59.31
2023-02-14T19:04:00.585Z,59.36
2023-02-14T19:06:29.908Z,59.40
2023-02-14T19:08:58.475Z,59.46
2023-02-14T19:11:28.112Z,59.47
2023-02-14T19:13:57.638Z,59.31
2023-02-14T19:16:28.393Z,59.61
2023-02-14T19:18:56.157Z,59.39
2023-02-14T19:21:26.773Z,59.39
2023-02-14T19:23:56.885Z,59.26
2023-02-14T19:26:26.527Z,59.19
2023-02-14T19:28:57.891Z,59.37
2023-02-14T19:31:27.060Z,59.42
2023-02-14T19:33:54.823Z,59.65
2023-02-14T19:36:24.297Z,59.36
2023-02-14T19:38:53.527Z,59.45
2023-02-14T19:41:23.570Z,59.48
2023-02-14T19:43:52.557Z,59.61
2023-02-14T19:46:21.241Z,59.26
2023-02-14T19:48:51.064Z,59.31
2023-02-14T19:51:25.023Z,59.47
2023-02-14T19:53:53.746Z,59.34
2023-02-14T19:56:22.788Z,59.54
2023-02-14T19:58:51.855Z,59.40
2023-02-14T20:01:24.660Z,59.76
2023-02-14T20:03:53.512Z,59.88
2023-02-14T20:06:22.710Z,59.83
2023-02-14T20:08:51.641Z,59.73
2023-02-14T20:11:30.608Z,59.83
2023-02-14T20:13:59.209Z,60.03
2023-02-14T20:16:29.754Z,60.10
2023-02-14T20:18:57.909Z,59.97
2023-02-14T20:21:28.060Z,59.93
2023-02-14T20:23:59.961Z,60.26
2023-02-14T20:26:28.541Z,59.94
2023-02-14T20:28:59.553Z,60.17
2023-02-14T20:31:27.760Z,60.21
2023-02-14T20:33:56.103Z,60.18
2023-02-14T20:36:25.257Z,60.03
2023-02-14T20:38:56.538Z,60.43
2023-02-14T20:41:24.341Z,60.38
2023-02-14T20:43:52.334Z,60.46
2023-02-14T20:46:21.245Z,60.44
2023-02-14T20:48:50.534Z,60.52
2023-02-14T20:51:19.731Z,60.31
2023-02-14T20:53:48.380Z,60.65
2023-02-14T20:56:16.384Z,60.68
2023-02-14T20:58:44.345Z,60.91
2023-02-14T21:01:14.804Z,60.92
2023-02-14T21:03:45.751Z,60.90
2023-02-14T21:06:15.010Z,61.04
2023-02-14T21:08:44.122Z,61.02
2023-02-14T21:11:15.054Z,60.97
2023-02-14T21:13:42.791Z,60.92
2023-02-14T21:16:14.327Z,61.12
2023-02-14T21:18:47.174Z,61.01
2023-02-14T21:21:18.305Z,61.25
2023-02-14T21:23:48.744Z,61.15
2023-02-14T21:26:17.296Z,60.93
2023-02-14T21:28:45.116Z,61.04
2023-02-14T21:31:16.636Z,60.90
2023-02-14T21:33:44.545Z,60.82
2023-02-14T21:36:14.480Z,60.84
2023-02-14T21:38:42.972Z,60.63
2023-02-14T21:41:12.268Z,60.83
2023-02-14T21:43:42.098Z,60.84
2023-02-14T21:46:12.139Z,60.52
2023-02-14T21:48:58.602Z,60.55
2023-02-14T21:51:26.843Z,60.76
2023-02-14T21:53:55.053Z,60.49
2023-02-14T21:56:23.468Z,60.98
2023-02-14T21:58:54.423Z,60.72
2023-02-14T22:01:24.440Z,60.73
2023-02-14T22:03:52.892Z,60.88
2023-02-14T22:06:21.420Z,60.72
2023-02-14T22:08:53.701Z,60.75
2023-02-14T22:11:22.727Z,60.76
2023-02-14T22:13:50.482Z,60.94
2023-02-14T22:16:20.626Z,61.11
2023-02-14T22:18:48.811Z,61.24
2023-02-14T22:21:18.448Z,61.21
2023-02-14T22:23:46.371Z,61.13
2023-02-14T22:26:15.657Z,61.30
2023-02-14T22:28:45.786Z,61.55
2023-02-14T22:31:14.627Z,61.38
2023-02-14T22:33:42.906Z,61.43
2023-02-14T22:36:11.093Z,61.47
2023-02-14T22:38:39.697Z,61.54
2023-02-14T22:41:08.707Z,61.55
2023-02-14T22:43:37.691Z,61.88
2023-02-14T22:46:07.387Z,61.92
2023-02-14T22:48:36.739Z,61.99
2023-02-14T22:51:09.377Z,61.85
2023-02-14T22:53:38.124Z,62.10
2023-02-14T22:56:15.571Z,62.22
2023-02-14T22:58:43.863Z,62.18
2023-02-14T23:01:16.803Z,62.16
2023-02-14T23:03:45.675Z,62.44
2023-02-14T23:06:14.206Z,62.52
2023-02-14T23:08:43.430Z,62.79
2023-02-14T23:11:13.717Z,62.76
2023-02-14T23:14:00.180Z,62.64
2023-02-14T23:16:46.687Z,62.95
2023-02-14T23:19:34.448Z,62.99
2023-02-14T23:22:04.802Z,62.80
2023-02-14T23:24:33.150Z,62.91
2023-02-14T23:27:01.883Z,63.16
2023-02-14T23:29:29.672Z,62.92
2023-02-14T23:31:57.414Z,62.96
2023-02-14T23:34:26.605Z,63.13
2023-02-14T23:36:54.402Z,63.09
2023-02-14T23:39:22.269Z,62.91
2023-02-14T23:41:50.062Z,62.81
2023-02-14T23:44:19.835Z,62.88
2023-02-14T23:46:50.046Z,63.07
2023-02-14T23:49:18.403Z,63.12
2023-02-14T23:51:47.931Z,63.23
2023-02-14T23:54:16.227Z,63.10
2023-02-14T23:56:45.080Z,63.07
2023-02-14T23:59:14.056Z,63.22
